createdAt,value
2019-02-05T00:00:54.577Z,1.79
2019-02-05T00:03:23.672Z,1.75
2019-02-05T00:05:52.274Z,1.76
2019-02-05T00:08:21.095Z,1.70
2019-02-05T00:10:52.489Z,1.64
2019-02-05T00:13:21.038Z,1.51
2019-02-05T00:15:49.631Z,1.38
2019-02-05T00:18:18.398Z,1.32
2019-02-05T00:20:46.993Z,1.19
2019-02-05T00:23:15.771Z,1.07
2019-02-05T00:25:44.434Z,1.03
2019-02-05T00:28:13.072Z,1.09
2019-02-05T00:30:41.644Z,1.15
2019-02-05T00:33:10.270Z,1.17
2019-02-05T00:35:38.930Z,1.21
2019-02-05T00:38:07.525Z,1.24
2019-02-05T00:40:36.152Z,1.24
2019-02-05T00:43:04.997Z,1.23
2019-02-05T00:45:33.637Z,1.25
2019-02-05T00:48:02.318Z,1.27
2019-02-05T00:50:30.882Z,1.31
2019-02-05T00:52:59.504Z,1.30
2019-02-05T00:55:28.081Z,1.29
2019-02-05T00:57:57.551Z,1.29
2019-02-05T01:00:27.712Z,1.26
2019-02-05T01:02:56.326Z,1.27
2019-02-05T01:05:24.920Z,1.19
2019-02-05T01:07:53.506Z,1.15
2019-02-05T01:10:23.059Z,1.14
2019-02-05T01:12:51.879Z,1.11
2019-02-05T01:15:20.526Z,1.05
2019-02-05T01:17:49.147Z,1.01
2019-02-05T01:20:18.035Z,1.01
2019-02-05T01:22:46.729Z,0.93
2019-02-05T01:25:16.170Z,0.97
2019-02-05T01:27:44.925Z,0.93
2019-02-05T01:30:16.335Z,0.91
2019-02-05T01:32:44.921Z,0.89
2019-02-05T01:35:13.482Z,0.93
2019-02-05T01:37:42.080Z,0.90
2019-02-05T01:40:13.019Z,0.86
2019-02-05T01:42:41.914Z,0.90
2019-02-05T01:45:13.164Z,0.84
2019-02-05T01:47:41.785Z,0.79
2019-02-05T01:50:10.816Z,0.76
2019-02-05T01:52:39.423Z,0.77
2019-02-05T01:55:08.719Z,0.84
2019-02-05T01:57:37.567Z,0.88
2019-02-05T02:00:07.508Z,0.85
2019-02-05T02:02:36.139Z,0.85
2019-02-05T02:05:05.083Z,0.83
2019-02-05T02:07:33.650Z,0.76
2019-02-05T02:10:02.209Z,0.67
2019-02-05T02:12:30.751Z,0.67
2019-02-05T02:14:59.304Z,0.63
2019-02-05T02:17:27.919Z,0.53
2019-02-05T02:19:56.504Z,0.54
2019-02-05T02:22:25.116Z,0.54
2019-02-05T02:24:53.707Z,0.51
2019-02-05T02:27:24.099Z,0.59
2019-02-05T02:29:53.189Z,0.57
2019-02-05T02:32:21.839Z,0.57
2019-02-05T02:34:50.483Z,0.54
2019-02-05T02:37:19.114Z,0.57
2019-02-05T02:39:47.734Z,0.72
2019-02-05T02:42:16.351Z,0.72
2019-02-05T02:44:45.299Z,0.69
2019-02-05T02:47:13.872Z,0.66
2019-02-05T02:49:42.498Z,0.68
2019-02-05T02:52:11.067Z,0.62
2019-02-05T02:54:39.772Z,0.61
2019-02-05T02:57:08.378Z,0.58
2019-02-05T02:59:37.000Z,0.53
2019-02-05T03:02:05.637Z,0.46
2019-02-05T03:04:34.245Z,0.43
2019-02-05T03:07:02.901Z,0.46
2019-02-05T03:09:31.521Z,0.36
2019-02-05T03:12:00.115Z,0.26
2019-02-05T03:14:28.758Z,0.24
2019-02-05T03:16:57.366Z,0.16
2019-02-05T03:19:26.270Z,0.19
2019-02-05T03:21:54.914Z,0.16
2019-02-05T03:24:23.589Z,0.10
2019-02-05T03:26:52.152Z,0.07
2019-02-05T03:29:20.829Z,0.12
2019-02-05T03:31:49.549Z,0.11
2019-02-05T03:34:20.676Z,0.17
2019-02-05T03:36:49.471Z,0.21
2019-02-05T03:39:18.119Z,0.29
2019-02-05T03:41:46.765Z,0.30
2019-02-05T03:44:15.439Z,0.29
2019-02-05T03:46:44.034Z,0.27
2019-02-05T03:49:12.703Z,0.28
2019-02-05T03:52:12.390Z,0.30
2019-02-05T03:55:28.493Z,0.23
2019-02-05T03:58:27.299Z,0.25
2019-02-05T04:01:31.159Z,0.26
2019-02-05T04:04:31.479Z,0.31
2019-02-05T04:07:38.103Z,0.41
2019-02-05T04:11:06.332Z,0.41
2019-02-05T04:14:07.638Z,0.46
2019-02-05T04:17:13.009Z,0.51
2019-02-05T04:20:41.314Z,0.51
2019-02-05T04:24:05.637Z,0.53
2019-02-05T04:27:27.694Z,0.64
2019-02-05T04:30:27.245Z,0.60
2019-02-05T04:33:27.631Z,0.59
2019-02-05T04:36:26.831Z,0.60
2019-02-05T04:39:31.358Z,0.62
2019-02-05T04:42:46.780Z,0.67
2019-02-05T04:45:47.904Z,0.70
2019-02-05T04:48:57.920Z,0.74
2019-02-05T04:52:01.936Z,0.75
2019-02-05T04:55:02.289Z,0.91
2019-02-05T04:58:01.423Z,0.81
2019-02-05T05:00:55.810Z,0.76
2019-02-05T05:04:10.792Z,0.74
2019-02-05T05:07:26.296Z,0.77
2019-02-05T05:09:56.579Z,0.85
2019-02-05T05:12:26.328Z,0.80
2019-02-05T05:14:54.954Z,0.75
2019-02-05T05:17:23.603Z,0.79
2019-02-05T05:19:52.271Z,0.83
2019-02-05T05:22:21.737Z,0.84
2019-02-05T05:24:50.384Z,0.92
2019-02-05T05:27:20.718Z,0.94
2019-02-05T05:29:49.357Z,0.95
2019-02-05T05:32:17.995Z,1.01
2019-02-05T05:34:46.628Z,1.02
2019-02-05T05:37:14.001Z,1.06
2019-02-05T05:39:42.632Z,1.06
2019-02-05T05:42:11.245Z,1.05
2019-02-05T05:44:39.902Z,1.09
2019-02-05T05:47:08.474Z,1.14
2019-02-05T05:49:37.075Z,1.14
2019-02-05T05:52:05.669Z,1.14
2019-02-05T05:54:34.340Z,1.17
2019-02-05T05:57:03.313Z,1.19
2019-02-05T05:59:31.973Z,1.14
2019-02-05T06:02:00.549Z,1.13
2019-02-05T06:04:29.408Z,1.11
2019-02-05T06:06:57.988Z,1.11
2019-02-05T06:09:26.617Z,1.08
2019-02-05T06:11:55.180Z,1.06
2019-02-05T06:14:23.829Z,1.12
2019-02-05T06:16:52.433Z,1.14
2019-02-05T06:19:21.246Z,1.17
2019-02-05T06:21:49.824Z,1.19
2019-02-05T06:24:18.399Z,1.21
2019-02-05T06:26:47.043Z,1.25
2019-02-05T06:29:15.699Z,1.29
2019-02-05T06:31:44.315Z,1.31
2019-02-05T06:34:12.970Z,1.31
2019-02-05T06:36:41.885Z,1.36
2019-02-05T06:39:10.553Z,1.64
2019-02-05T06:41:39.308Z,1.66
2019-02-05T06:44:08.147Z,1.61
2019-02-05T06:46:37.092Z,1.46
2019-02-05T06:49:05.983Z,1.31
2019-02-05T06:51:34.669Z,1.34
2019-02-05T06:54:03.609Z,1.32
2019-02-05T06:56:32.264Z,1.38
2019-02-05T06:59:00.861Z,1.39
2019-02-05T07:01:29.529Z,1.40
2019-02-05T07:03:58.167Z,1.48
2019-02-05T07:06:26.816Z,1.48
2019-02-05T07:08:55.401Z,1.35
2019-02-05T07:11:24.230Z,1.27
2019-02-05T07:13:52.909Z,1.36
2019-02-05T07:16:21.536Z,1.38
2019-02-05T07:18:50.133Z,1.40
2019-02-05T07:21:18.791Z,1.40
2019-02-05T07:23:47.596Z,1.46
2019-02-05T07:26:16.227Z,1.46
2019-02-05T07:28:45.069Z,1.48
2019-02-05T07:31:13.705Z,1.58
2019-02-05T07:33:42.386Z,1.54
2019-02-05T07:36:11.000Z,1.60
2019-02-05T07:38:39.647Z,1.60
2019-02-05T07:41:08.264Z,1.63
2019-02-05T07:43:36.892Z,1.69
2019-02-05T07:46:05.943Z,1.64
2019-02-05T07:48:34.901Z,1.60
2019-02-05T07:51:03.541Z,1.71
2019-02-05T07:53:33.261Z,1.71
2019-02-05T07:56:02.843Z,1.86
2019-02-05T07:58:31.537Z,1.94
2019-02-05T08:01:00.179Z,1.86
2019-02-05T08:03:28.775Z,1.96
2019-02-05T08:05:57.498Z,1.91
2019-02-05T08:08:26.123Z,1.85
2019-02-05T08:10:54.775Z,2.15
2019-02-05T08:13:23.447Z,2.16
2019-02-05T08:15:52.085Z,2.21
2019-02-05T08:18:20.696Z,2.25
2019-02-05T08:20:49.387Z,2.19
2019-02-05T08:23:18.030Z,2.24
2019-02-05T08:25:48.560Z,2.32
2019-02-05T08:28:17.154Z,2.23
2019-02-05T08:30:47.610Z,2.33
2019-02-05T08:33:16.375Z,2.43
2019-02-05T08:35:45.126Z,2.52
2019-02-05T08:38:13.791Z,2.45
2019-02-05T08:40:42.841Z,2.45
2019-02-05T08:43:11.424Z,2.40
2019-02-05T08:45:40.144Z,2.36
2019-02-05T08:48:09.867Z,2.22
2019-02-05T08:50:38.542Z,2.42
2019-02-05T08:53:07.186Z,2.60
2019-02-05T08:55:35.797Z,2.64
2019-02-05T08:58:07.544Z,2.65
2019-02-05T09:00:37.418Z,2.67
2019-02-05T09:03:07.633Z,2.65
2019-02-05T09:05:36.238Z,2.85
2019-02-05T09:08:04.886Z,3.02
2019-02-05T09:10:34.801Z,3.17
2019-02-05T09:13:03.506Z,3.21
2019-02-05T09:15:32.504Z,3.30
2019-02-05T09:18:01.312Z,3.25
2019-02-05T09:20:29.939Z,3.36
2019-02-05T09:22:58.636Z,3.37
2019-02-05T09:25:27.737Z,3.47
2019-02-05T09:27:56.544Z,3.28
2019-02-05T09:30:29.625Z,3.18
2019-02-05T09:32:59.696Z,3.18
2019-02-05T09:35:28.377Z,3.17
2019-02-05T09:37:57.868Z,3.35
2019-02-05T09:40:28.537Z,3.28
2019-02-05T09:42:57.157Z,3.41
2019-02-05T09:45:26.347Z,3.42
2019-02-05T09:47:55.475Z,3.61
2019-02-05T09:50:24.338Z,3.46
2019-02-05T09:52:53.133Z,3.74
2019-02-05T09:55:21.819Z,3.62
2019-02-05T09:57:50.447Z,3.44
2019-02-05T10:00:24.304Z,3.44
2019-02-05T10:02:53.014Z,3.51
2019-02-05T10:05:22.639Z,3.66
2019-02-05T10:07:51.272Z,3.44
2019-02-05T10:10:20.171Z,3.52
2019-02-05T10:12:48.832Z,3.75
2019-02-05T10:15:19.644Z,3.89
2019-02-05T10:17:48.250Z,4.18
2019-02-05T10:20:17.528Z,4.14
2019-02-05T10:22:46.170Z,4.24
2019-02-05T10:25:15.431Z,4.28
2019-02-05T10:27:44.005Z,4.20
2019-02-05T10:30:21.565Z,4.34
2019-02-05T10:32:51.160Z,4.38
2019-02-05T10:35:20.299Z,4.28
2019-02-05T10:37:49.038Z,4.57
2019-02-05T10:40:18.168Z,4.62
2019-02-05T10:42:47.750Z,4.70
2019-02-05T10:45:17.418Z,4.83
2019-02-05T10:47:46.131Z,5.16
2019-02-05T10:50:15.944Z,5.13
2019-02-05T10:52:45.254Z,5.31
2019-02-05T10:55:15.345Z,5.36
2019-02-05T10:57:44.034Z,5.19
2019-02-05T11:00:20.760Z,5.09
2019-02-05T11:02:49.539Z,5.20
2019-02-05T11:05:23.139Z,5.00
2019-02-05T11:07:51.737Z,5.00
2019-02-05T11:10:20.291Z,4.92
2019-02-05T11:12:48.887Z,4.72
2019-02-05T11:15:19.529Z,4.91
2019-02-05T11:17:48.277Z,4.74
2019-02-05T11:20:19.132Z,4.92
2019-02-05T11:22:48.166Z,4.75
2019-02-05T11:25:16.772Z,4.62
2019-02-05T11:27:46.045Z,4.74
2019-02-05T11:30:26.207Z,4.95
2019-02-05T11:32:54.867Z,5.00
2019-02-05T11:35:23.543Z,5.06
2019-02-05T11:37:52.623Z,4.88
2019-02-05T11:40:26.662Z,4.80
2019-02-05T11:42:55.332Z,4.98
2019-02-05T11:45:24.051Z,5.38
2019-02-05T11:47:52.645Z,5.37
2019-02-05T11:50:21.286Z,5.39
2019-02-05T11:52:50.386Z,5.50
2019-02-05T11:55:20.835Z,5.47
2019-02-05T11:57:49.451Z,5.49
2019-02-05T12:00:32.716Z,5.25
2019-02-05T12:02:56.840Z,5.30
2019-02-05T12:05:25.445Z,5.41
2019-02-05T12:07:54.623Z,5.60
2019-02-05T12:10:23.227Z,5.46
2019-02-05T12:12:52.244Z,5.48
2019-02-05T12:15:20.855Z,5.48
2019-02-05T12:17:49.464Z,5.22
2019-02-05T12:20:18.105Z,5.35
2019-02-05T12:22:46.724Z,5.62
2019-02-05T12:25:16.070Z,5.70
2019-02-05T12:27:44.985Z,5.51
2019-02-05T12:30:22.962Z,5.37
2019-02-05T12:32:52.004Z,5.47
2019-02-05T12:35:20.727Z,5.68
2019-02-05T12:37:49.387Z,5.61
2019-02-05T12:40:18.179Z,5.86
2019-02-05T12:42:46.818Z,5.61
2019-02-05T12:45:18.082Z,5.87
2019-02-05T12:47:46.803Z,6.06
2019-02-05T12:50:21.085Z,6.46
2019-02-05T12:52:49.769Z,6.49
2019-02-05T12:55:18.394Z,6.42
2019-02-05T12:57:47.032Z,6.63
2019-02-05T13:00:21.478Z,6.67
2019-02-05T13:02:50.134Z,6.48
2019-02-05T13:05:18.850Z,6.54
2019-02-05T13:07:47.520Z,5.98
2019-02-05T13:10:18.374Z,5.71
2019-02-05T13:12:47.036Z,5.65
2019-02-05T13:15:15.638Z,5.88
2019-02-05T13:17:44.311Z,6.14
2019-02-05T13:20:16.899Z,6.15
2019-02-05T13:22:45.869Z,6.15
2019-02-05T13:25:17.534Z,6.37
2019-02-05T13:27:46.145Z,5.97
2019-02-05T13:30:17.273Z,5.89
2019-02-05T13:32:45.863Z,5.97
2019-02-05T13:35:15.033Z,6.04
2019-02-05T13:37:43.617Z,6.11
2019-02-05T13:40:14.798Z,5.90
2019-02-05T13:42:43.473Z,5.74
2019-02-05T13:45:12.399Z,5.71
2019-02-05T13:47:41.317Z,5.85
2019-02-05T13:50:13.464Z,6.01
2019-02-05T13:52:42.100Z,6.04
2019-02-05T13:55:12.373Z,6.06
2019-02-05T13:57:40.990Z,6.32
2019-02-05T14:00:14.473Z,6.40
2019-02-05T14:02:43.085Z,6.55
2019-02-05T14:05:11.707Z,6.77
2019-02-05T14:07:40.710Z,6.80
2019-02-05T14:10:13.040Z,6.93
2019-02-05T14:12:41.655Z,7.21
2019-02-05T14:15:10.394Z,6.98
2019-02-05T14:17:39.043Z,6.51
2019-02-05T14:20:08.508Z,6.37
2019-02-05T14:22:37.193Z,6.23
2019-02-05T14:25:07.086Z,6.14
2019-02-05T14:27:35.730Z,6.20
2019-02-05T14:30:05.493Z,6.23
2019-02-05T14:32:34.194Z,6.12
2019-02-05T14:35:03.047Z,6.13
2019-02-05T14:37:31.607Z,6.33
2019-02-05T14:40:00.681Z,6.26
2019-02-05T14:42:29.247Z,6.25
2019-02-05T14:44:58.960Z,6.06
2019-02-05T14:47:27.524Z,6.01
2019-02-05T14:49:56.162Z,5.72
2019-02-05T14:52:25.154Z,5.93
2019-02-05T14:54:54.073Z,6.10
2019-02-05T14:57:22.703Z,6.22
2019-02-05T14:59:51.311Z,6.31
2019-02-05T15:02:19.890Z,6.21
2019-02-05T15:04:48.532Z,6.00
2019-02-05T15:07:17.192Z,5.91
2019-02-05T15:09:46.282Z,5.80
2019-02-05T15:12:14.896Z,5.75
2019-02-05T15:14:43.513Z,5.28
2019-02-05T15:17:12.145Z,5.39
2019-02-05T15:19:40.914Z,5.43
2019-02-05T15:22:09.523Z,5.33
2019-02-05T15:24:40.907Z,5.25
2019-02-05T15:27:08.585Z,5.14
2019-02-05T15:29:37.202Z,5.14
2019-02-05T15:32:05.811Z,5.11
2019-02-05T15:34:34.415Z,5.10
2019-02-05T15:37:03.250Z,5.09
2019-02-05T15:39:31.847Z,5.06
2019-02-05T15:42:00.471Z,5.06
2019-02-05T15:44:29.079Z,5.03
2019-02-05T15:46:57.659Z,4.95
2019-02-05T15:49:27.056Z,4.95
2019-02-05T15:51:55.961Z,4.99
2019-02-05T15:54:24.560Z,4.91
2019-02-05T15:56:53.375Z,4.93
2019-02-05T15:59:21.987Z,4.90
2019-02-05T16:01:50.818Z,4.98
2019-02-05T16:04:19.534Z,4.94
2019-02-05T16:06:48.171Z,5.04
2019-02-05T16:09:16.828Z,4.98
2019-02-05T16:11:45.481Z,4.95
2019-02-05T16:14:14.148Z,4.92
2019-02-05T16:16:42.788Z,4.93
2019-02-05T16:19:11.440Z,4.95
2019-02-05T16:21:40.056Z,4.97
2019-02-05T16:24:08.680Z,4.85
2019-02-05T16:26:37.333Z,4.88
2019-02-05T16:29:06.497Z,4.86
2019-02-05T16:31:35.187Z,4.86
2019-02-05T16:34:03.809Z,4.86
2019-02-05T16:36:32.482Z,4.85
2019-02-05T16:39:01.173Z,4.83
2019-02-05T16:41:29.816Z,4.81
2019-02-05T16:43:58.404Z,4.76
2019-02-05T16:46:27.027Z,4.81
2019-02-05T16:48:56.299Z,4.76
2019-02-05T16:51:24.920Z,4.68
2019-02-05T16:53:53.513Z,4.68
2019-02-05T16:56:22.173Z,4.66
2019-02-05T16:58:50.753Z,4.67
2019-02-05T17:01:19.636Z,4.66
2019-02-05T17:03:48.252Z,4.64
2019-02-05T17:06:16.924Z,4.64
2019-02-05T17:08:45.520Z,4.70
2019-02-05T17:11:14.278Z,4.65
2019-02-05T17:13:42.927Z,4.62
2019-02-05T17:16:11.918Z,4.62
2019-02-05T17:18:40.536Z,4.59
2019-02-05T17:21:09.105Z,4.61
2019-02-05T17:23:37.737Z,4.56
2019-02-05T17:26:06.397Z,4.57
2019-02-05T17:28:34.992Z,4.56
2019-02-05T17:31:03.612Z,4.59
2019-02-05T17:33:32.227Z,4.61
2019-02-05T17:36:02.072Z,4.56
2019-02-05T17:38:30.667Z,4.56
2019-02-05T17:40:59.252Z,4.58
2019-02-05T17:43:27.879Z,4.52
2019-02-05T17:45:56.498Z,4.53
2019-02-05T17:48:25.424Z,4.51
2019-02-05T17:50:54.094Z,4.49
2019-02-05T17:53:22.793Z,4.46
2019-02-05T17:55:51.469Z,4.45
2019-02-05T17:58:20.264Z,4.23
2019-02-05T18:00:55.590Z,4.45
2019-02-05T18:03:24.240Z,4.43
2019-02-05T18:05:52.999Z,4.44
2019-02-05T18:08:21.649Z,4.46
2019-02-05T18:10:50.734Z,4.44
2019-02-05T18:13:19.501Z,4.44
2019-02-05T18:15:48.435Z,4.44
2019-02-05T18:18:17.439Z,4.41
2019-02-05T18:20:46.341Z,4.41
2019-02-05T18:23:15.023Z,4.44
2019-02-05T18:25:43.649Z,4.44
2019-02-05T18:28:12.465Z,4.48
2019-02-05T18:30:41.146Z,4.48
2019-02-05T18:33:10.148Z,4.53
2019-02-05T18:35:39.009Z,4.50
2019-02-05T18:38:09.473Z,4.47
2019-02-05T18:40:38.131Z,4.45
2019-02-05T18:43:06.856Z,4.51
2019-02-05T18:45:35.400Z,4.53
2019-02-05T18:48:04.048Z,4.50
2019-02-05T18:50:32.761Z,4.48
2019-02-05T18:53:01.399Z,4.45
2019-02-05T18:55:30.761Z,4.46
2019-02-05T18:58:08.951Z,4.48
2019-02-05T19:00:32.362Z,4.50
2019-02-05T19:03:00.998Z,4.46
2019-02-05T19:05:30.043Z,4.44
2019-02-05T19:07:58.690Z,4.45
2019-02-05T19:10:27.926Z,4.44
2019-02-05T19:12:56.704Z,4.41
2019-02-05T19:15:27.447Z,4.41
2019-02-05T19:17:56.080Z,4.41
2019-02-05T19:20:27.799Z,4.37
2019-02-05T19:22:56.480Z,4.36
2019-02-05T19:25:38.757Z,4.35
2019-02-05T19:28:07.681Z,4.34
2019-02-05T19:30:37.251Z,4.34
2019-02-05T19:33:05.953Z,4.33
2019-02-05T19:35:34.664Z,4.31
2019-02-05T19:38:03.242Z,4.33
2019-02-05T19:40:31.910Z,4.32
2019-02-05T19:43:00.509Z,4.31
2019-02-05T19:45:51.223Z,4.32
2019-02-05T19:48:28.730Z,4.33
2019-02-05T19:50:57.756Z,4.33
2019-02-05T19:53:26.459Z,4.38
2019-02-05T19:55:55.446Z,4.45
2019-02-05T19:58:24.109Z,4.44
2019-02-05T20:00:53.172Z,4.38
2019-02-05T20:03:22.098Z,4.33
2019-02-05T20:05:50.721Z,4.41
2019-02-05T20:08:19.332Z,4.49
2019-02-05T20:10:48.003Z,4.49
2019-02-05T20:13:16.641Z,4.48
2019-02-05T20:15:45.253Z,4.43
2019-02-05T20:18:14.364Z,4.39
2019-02-05T20:20:42.990Z,4.35
2019-02-05T20:23:11.735Z,4.37
2019-02-05T20:25:40.384Z,4.39
2019-02-05T20:28:09.057Z,4.31
2019-02-05T20:30:37.740Z,4.26
2019-02-05T20:33:06.444Z,4.28
2019-02-05T20:35:35.299Z,4.28
2019-02-05T20:38:03.979Z,4.24
2019-02-05T20:40:32.645Z,4.22
2019-02-05T20:43:01.250Z,4.24
2019-02-05T20:45:30.005Z,4.28
2019-02-05T20:47:58.651Z,4.30
2019-02-05T20:50:27.391Z,4.31
2019-02-05T20:52:57.482Z,4.24
2019-02-05T20:55:26.500Z,4.22
2019-02-05T20:57:55.384Z,4.26
2019-02-05T21:00:24.114Z,4.36
2019-02-05T21:02:52.761Z,4.33
2019-02-05T21:05:21.418Z,4.41
2019-02-05T21:07:50.329Z,4.37
2019-02-05T21:10:21.043Z,4.34
2019-02-05T21:12:49.687Z,4.35
2019-02-05T21:15:18.379Z,4.35
2019-02-05T21:17:46.992Z,4.30
2019-02-05T21:20:28.432Z,4.29
2019-02-05T21:22:48.068Z,4.27
2019-02-05T21:25:17.438Z,4.18
2019-02-05T21:27:46.485Z,4.11
2019-02-05T21:30:17.367Z,3.99
2019-02-05T21:32:47.934Z,3.87
2019-02-05T21:35:16.321Z,3.81
2019-02-05T21:37:44.939Z,3.65
2019-02-05T21:40:18.888Z,3.54
2019-02-05T21:42:47.476Z,3.38
2019-02-05T21:45:20.596Z,3.25
2019-02-05T21:47:49.401Z,3.04
2019-02-05T21:50:19.541Z,2.92
2019-02-05T21:52:48.718Z,2.77
2019-02-05T21:55:18.144Z,2.59
2019-02-05T21:57:46.738Z,2.51
2019-02-05T22:00:21.205Z,2.48
2019-02-05T22:02:50.230Z,2.43
2019-02-05T22:05:18.902Z,2.46
2019-02-05T22:07:47.572Z,2.33
2019-02-05T22:10:16.183Z,2.20
2019-02-05T22:12:44.917Z,2.18
2019-02-05T22:15:13.966Z,2.12
2019-02-05T22:17:42.610Z,2.04
2019-02-05T22:20:13.844Z,1.98
2019-02-05T22:22:42.439Z,1.92
2019-02-05T22:25:14.951Z,1.86
2019-02-05T22:27:43.619Z,1.84
2019-02-05T22:30:21.009Z,1.86
2019-02-05T22:32:49.820Z,1.70
2019-02-05T22:35:18.887Z,1.46
2019-02-05T22:37:47.790Z,1.37
2019-02-05T22:40:17.507Z,1.36
2019-02-05T22:42:46.093Z,1.24
2019-02-05T22:45:15.427Z,1.14
2019-02-05T22:47:44.033Z,1.14
2019-02-05T22:50:15.630Z,1.14
2019-02-05T22:52:44.471Z,0.98
2019-02-05T22:55:13.115Z,0.79
2019-02-05T22:57:41.698Z,0.65
2019-02-05T23:00:27.887Z,0.54
2019-02-05T23:02:56.583Z,0.48
2019-02-05T23:05:47.483Z,0.50
2019-02-05T23:08:16.122Z,0.43
2019-02-05T23:11:15.292Z,0.33
2019-02-05T23:13:44.053Z,0.27
2019-02-05T23:16:12.615Z,0.12
2019-02-05T23:18:41.218Z,0.06
2019-02-05T23:21:09.806Z,0.23
2019-02-05T23:23:38.425Z,0.30
2019-02-05T23:26:07.006Z,0.31
2019-02-05T23:28:35.872Z,0.29
2019-02-05T23:31:04.504Z,0.23
2019-02-05T23:33:33.108Z,0.37
2019-02-05T23:36:01.738Z,0.58
2019-02-05T23:38:30.488Z,0.47
2019-02-05T23:41:00.754Z,0.36
2019-02-05T23:43:29.820Z,0.35
2019-02-05T23:46:01.612Z,0.13
2019-02-05T23:48:28.711Z,0.04
2019-02-05T23:50:57.345Z,-0.07
2019-02-05T23:53:25.954Z,-0.16
2019-02-05T23:55:54.561Z,-0.07
2019-02-05T23:58:23.129Z,0.12
